Chicago Midway International Airport
KMDW : now visible

Airfield :











YOU CAN JOIN US ON...

 
LOGIN :

Register | Disclaimer

   EN    FR    IT 

 









Legend :    VFR   Marginal VFR   IFR   Intensive IFR   Very Intensive IFR
Visi :
Ceiling :
>= 8 km
>= 3000ft
5 to 8 km
1000 to 3000 ft
1500m to 5 km
500 to 1000 ft
800 to 1500m
200 to 500 ft
< 800m
< 200 ft
Symbols :   Thunderstorms  Fog  Heavy snow  Heavy precipitations  Wind > 20 kt






- Airport Elevation : 620 ft
- IATA code : MDW


KMDW - Chicago Midway International

CURRENT METAR :
  • 080653Z 20008KT 10SM BKN250 03/M05 A3012 RMK AO2 SLP207 T00281050

EXPIRED METARs :
  • 080553Z 20010KT 10SM BKN250 02/M04 A3013 RMK AO2 SLP213 T00221044 10028 20017 400391039 56017
  • 080453Z 19009KT 10SM BKN250 02/M04 A3014 RMK AO2 SLP218 T00221044

TAF KMDW
Valid from the 08 at 06:00 until the 09 at 12:00 UTC


080531Z 0806/0912 20013KT P6SM BKN250 WS015/22045KT
FM081100 21014G22KT P6SM SCT007 OVC010
FM081500 21014G22KT P6SM SCT020 BKN250
FM082200 21010KT P6SM SCT020 OVC100
FM090100 20008KT P6SM OVC015
FM090400 19006KT 6SM BR VCSH OVC007



MET'MAP, your aeronautical weather chart ! - Copyright ORBIFLY December 2007 - Disclaimer

ORBIFLY MET'MAP TEAM :

Programming & Development : Alexandra Zaïnal
Concept & original design : Baudouin d'Aumeries
Assistance for programming : Marc-Olivier Méhu
Technical & hardware support : Manuel Goepfert

Contact : metmap@orbifly.com




SOURCES & CREDITS :

   NOAA       Earth
Advisory